createdAt,value
2023-02-22T00:01:35.629Z,10.59
2023-02-22T00:04:07.026Z,10.52
2023-02-22T00:06:34.146Z,10.50
2023-02-22T00:09:02.612Z,10.43
2023-02-22T00:11:31.707Z,10.44
2023-02-22T00:13:58.938Z,10.38
2023-02-22T00:16:26.802Z,10.35
2023-02-22T00:18:54.593Z,10.35
2023-02-22T00:21:22.404Z,10.32
2023-02-22T00:23:49.934Z,10.27
2023-02-22T00:26:23.421Z,10.28
2023-02-22T00:28:54.592Z,10.23
2023-02-22T00:31:21.879Z,10.29
2023-02-22T00:33:49.719Z,10.26
2023-02-22T00:36:17.464Z,10.35
2023-02-22T00:38:44.303Z,10.32
2023-02-22T00:41:12.229Z,10.36
2023-02-22T00:43:39.067Z,10.28
2023-02-22T00:46:06.259Z,10.29
2023-02-22T00:48:33.078Z,10.26
2023-02-22T00:51:00.003Z,10.23
2023-02-22T00:53:26.923Z,10.18
2023-02-22T00:55:54.352Z,10.25
2023-02-22T00:58:21.831Z,10.22
2023-02-22T01:00:48.964Z,10.18
2023-02-22T01:03:18.225Z,10.05
2023-02-22T01:05:45.606Z,10.16
2023-02-22T01:08:15.578Z,10.13
2023-02-22T01:10:42.908Z,10.05
2023-02-22T01:13:12.590Z,10.09
2023-02-22T01:15:42.045Z,10.06
2023-02-22T01:18:09.779Z,10.05
2023-02-22T01:20:37.364Z,9.98
2023-02-22T01:23:07.905Z,9.94
2023-02-22T01:25:35.870Z,9.95
2023-02-22T01:28:05.736Z,9.95
2023-02-22T01:30:35.252Z,9.94
2023-02-22T01:33:04.324Z,9.95
2023-02-22T01:35:35.324Z,10.00
2023-02-22T01:38:02.725Z,10.02
2023-02-22T01:40:32.991Z,10.01
2023-02-22T01:43:02.365Z,9.99
2023-02-22T01:45:34.633Z,10.05
2023-02-22T01:48:13.387Z,10.06
2023-02-22T01:50:47.665Z,9.99
2023-02-22T01:53:18.241Z,9.91
2023-02-22T01:55:47.974Z,9.86
2023-02-22T01:58:18.762Z,9.76
2023-02-22T02:00:45.917Z,9.65
2023-02-22T02:03:18.432Z,9.60
2023-02-22T02:05:46.111Z,9.57
2023-02-22T02:08:24.332Z,9.36
2023-02-22T02:10:53.711Z,9.29
2023-02-22T02:13:20.654Z,9.35
2023-02-22T02:15:49.901Z,9.30
2023-02-22T02:18:16.764Z,9.27
2023-02-22T02:21:08.176Z,9.22
2023-02-22T02:24:05.057Z,9.15
2023-02-22T02:26:53.776Z,9.22
2023-02-22T02:29:43.570Z,9.20
2023-02-22T02:32:44.605Z,9.13
2023-02-22T02:36:11.889Z,9.10
2023-02-22T02:38:59.308Z,8.97
2023-02-22T02:41:46.644Z,9.04
2023-02-22T02:44:29.147Z,8.96
2023-02-22T02:47:03.091Z,8.96
2023-02-22T02:49:39.857Z,8.99
2023-02-22T02:52:11.462Z,8.96
2023-02-22T02:54:40.121Z,8.86
2023-02-22T02:57:09.482Z,8.86
2023-02-22T02:59:38.439Z,8.86
2023-02-22T03:02:34.362Z,8.84
2023-02-22T03:05:07.547Z,8.93
2023-02-22T03:08:04.835Z,8.86
2023-02-22T03:10:52.665Z,8.95
2023-02-22T03:13:48.578Z,8.70
2023-02-22T03:16:19.796Z,9.00
2023-02-22T03:18:55.583Z,8.88
2023-02-22T03:21:41.398Z,8.88
2023-02-22T03:24:14.340Z,8.93
2023-02-22T03:26:46.556Z,8.80
2023-02-22T03:29:17.959Z,8.82
2023-02-22T03:31:51.170Z,8.87
2023-02-22T03:34:27.912Z,8.85
2023-02-22T03:37:06.594Z,8.93
2023-02-22T03:39:36.908Z,8.91
2023-02-22T03:42:13.867Z,8.89
2023-02-22T03:44:43.891Z,8.90
2023-02-22T03:47:19.407Z,8.90
2023-02-22T03:49:53.969Z,8.92
2023-02-22T03:52:23.524Z,9.00
2023-02-22T03:54:54.948Z,8.99
2023-02-22T03:57:37.506Z,9.00
2023-02-22T04:00:08.965Z,8.94
2023-02-22T04:02:44.824Z,8.95
2023-02-22T04:05:18.297Z,8.92
2023-02-22T04:07:45.705Z,8.82
2023-02-22T04:10:16.063Z,8.73
2023-02-22T04:12:43.774Z,8.66
2023-02-22T04:15:15.582Z,8.61
2023-02-22T04:17:43.629Z,8.59
2023-02-22T04:20:13.822Z,8.55
2023-02-22T04:22:48.655Z,8.51
2023-02-22T04:25:16.097Z,8.57
2023-02-22T04:27:43.772Z,8.49
2023-02-22T04:30:12.373Z,8.45
2023-02-22T04:32:39.699Z,8.41
2023-02-22T04:35:07.964Z,8.45
2023-02-22T04:37:35.357Z,8.48
2023-02-22T04:40:08.981Z,8.49
2023-02-22T04:42:37.201Z,8.47
2023-02-22T04:45:06.121Z,8.54
2023-02-22T04:47:33.634Z,8.49
2023-02-22T04:50:00.972Z,8.50
2023-02-22T04:52:29.594Z,8.53
2023-02-22T04:54:57.015Z,8.49
2023-02-22T04:57:24.573Z,8.39
2023-02-22T04:59:51.412Z,8.27
2023-02-22T05:02:19.877Z,8.21
2023-02-22T05:04:46.710Z,8.25
2023-02-22T05:07:13.618Z,8.22
2023-02-22T05:09:40.794Z,8.15
2023-02-22T05:12:07.817Z,8.13
2023-02-22T05:14:35.532Z,8.20
2023-02-22T05:17:03.550Z,8.18
2023-02-22T05:19:30.767Z,8.19
2023-02-22T05:21:57.799Z,8.17
2023-02-22T05:24:24.897Z,8.12
2023-02-22T05:26:53.268Z,8.18
2023-02-22T05:29:21.117Z,8.13
2023-02-22T05:31:48.215Z,8.36
2023-02-22T05:34:15.684Z,8.35
2023-02-22T05:36:42.653Z,8.44
2023-02-22T05:39:09.977Z,8.54
2023-02-22T05:41:36.784Z,8.57
2023-02-22T05:44:04.099Z,8.64
2023-02-22T05:46:31.116Z,8.78
2023-02-22T05:48:58.501Z,8.86
2023-02-22T05:51:25.475Z,8.87
2023-02-22T05:53:52.633Z,8.94
2023-02-22T05:56:29.025Z,9.09
2023-02-22T05:58:56.975Z,9.21
2023-02-22T06:01:24.162Z,9.28
2023-02-22T06:03:51.936Z,9.48
2023-02-22T06:06:22.276Z,9.53
2023-02-22T06:08:49.895Z,9.61
2023-02-22T06:11:17.116Z,9.68
2023-02-22T06:13:53.020Z,9.85
2023-02-22T06:16:22.520Z,9.88
2023-02-22T06:18:50.325Z,10.05
2023-02-22T06:21:18.040Z,10.10
2023-02-22T06:23:45.316Z,10.20
2023-02-22T06:26:13.025Z,10.30
2023-02-22T06:28:39.867Z,10.38
2023-02-22T06:31:06.934Z,10.54
2023-02-22T06:33:33.807Z,10.58
2023-02-22T06:36:01.305Z,10.71
2023-02-22T06:38:29.440Z,10.84
2023-02-22T06:40:56.547Z,10.92
2023-02-22T06:43:24.961Z,11.13
2023-02-22T06:45:52.876Z,11.15
2023-02-22T06:48:19.865Z,11.32
2023-02-22T06:50:46.978Z,11.43
2023-02-22T06:53:13.781Z,11.57
2023-02-22T06:55:40.873Z,11.65
2023-02-22T06:58:07.644Z,11.70
2023-02-22T07:00:34.770Z,11.97
2023-02-22T07:03:03.959Z,12.07
2023-02-22T07:05:31.112Z,11.98
2023-02-22T07:08:04.546Z,12.06
2023-02-22T07:10:33.531Z,12.19
2023-02-22T07:13:01.242Z,12.39
2023-02-22T07:15:30.703Z,12.46
2023-02-22T07:17:57.920Z,12.51
2023-02-22T07:20:27.167Z,12.71
2023-02-22T07:22:54.383Z,12.84
2023-02-22T07:25:23.229Z,12.85
2023-02-22T07:27:52.500Z,12.90
2023-02-22T07:30:31.126Z,12.89
2023-02-22T07:33:01.161Z,12.91
2023-02-22T07:35:33.807Z,13.05
2023-02-22T07:38:00.880Z,13.27
2023-02-22T07:40:28.462Z,13.37
2023-02-22T07:43:01.221Z,13.46
2023-02-22T07:45:35.886Z,13.33
2023-02-22T07:48:04.308Z,13.47
2023-02-22T07:50:32.468Z,13.64
2023-02-22T07:53:03.149Z,13.55
2023-02-22T07:55:32.316Z,13.74
2023-02-22T07:58:02.311Z,13.85
2023-02-22T08:00:35.114Z,13.78
2023-02-22T08:03:05.029Z,13.87
2023-02-22T08:05:33.747Z,13.92
2023-02-22T08:08:00.571Z,13.91
2023-02-22T08:10:28.523Z,13.93
2023-02-22T08:12:56.043Z,14.00
2023-02-22T08:15:34.932Z,14.14
2023-02-22T08:18:04.036Z,14.28
2023-02-22T08:20:31.372Z,14.22
2023-02-22T08:22:59.130Z,14.27
2023-02-22T08:25:29.553Z,14.35
2023-02-22T08:28:08.922Z,14.50
2023-02-22T08:30:40.081Z,14.67
2023-02-22T08:33:07.710Z,14.61
2023-02-22T08:35:35.055Z,14.42
2023-02-22T08:38:05.535Z,14.61
2023-02-22T08:40:35.186Z,14.78
2023-02-22T08:43:03.452Z,14.78
2023-02-22T08:45:30.685Z,14.85
2023-02-22T08:47:58.604Z,14.92
2023-02-22T08:50:33.591Z,15.00
2023-02-22T08:53:02.306Z,14.93
2023-02-22T08:55:32.392Z,15.10
2023-02-22T08:58:03.174Z,15.13
2023-02-22T09:00:33.297Z,15.22
2023-02-22T09:03:02.216Z,15.29
2023-02-22T09:05:31.459Z,15.36
2023-02-22T09:07:59.354Z,15.33
2023-02-22T09:10:29.364Z,15.32
2023-02-22T09:12:57.180Z,15.43
2023-02-22T09:15:25.903Z,15.41
2023-02-22T09:17:53.609Z,15.29
2023-02-22T09:20:22.376Z,15.38
2023-02-22T09:22:50.140Z,15.43
2023-02-22T09:25:18.333Z,15.55
2023-02-22T09:27:51.747Z,15.52
2023-02-22T09:30:23.985Z,15.55
2023-02-22T09:32:53.334Z,15.70
2023-02-22T09:35:26.963Z,15.82
2023-02-22T09:37:58.509Z,15.76
2023-02-22T09:40:29.950Z,15.73
2023-02-22T09:43:21.241Z,15.80
2023-02-22T09:46:26.918Z,15.93
2023-02-22T09:49:00.091Z,16.02
2023-02-22T09:51:49.415Z,16.16
2023-02-22T09:54:29.753Z,16.09
2023-02-22T09:57:00.719Z,16.26
2023-02-22T09:59:32.048Z,16.09
2023-02-22T10:02:32.782Z,15.85
2023-02-22T10:05:12.203Z,16.09
2023-02-22T10:07:47.184Z,16.18
2023-02-22T10:10:20.945Z,16.25
2023-02-22T10:12:56.959Z,16.21
2023-02-22T10:15:35.845Z,16.17
2023-02-22T10:18:32.935Z,16.35
2023-02-22T10:21:11.878Z,16.41
2023-02-22T10:23:47.302Z,16.59
2023-02-22T10:26:14.059Z,16.74
2023-02-22T10:28:55.375Z,16.71
2023-02-22T10:31:33.894Z,16.52
2023-02-22T10:34:03.311Z,16.57
2023-02-22T10:36:30.432Z,16.53
2023-02-22T10:39:12.355Z,16.47
2023-02-22T10:41:49.349Z,16.52
2023-02-22T10:44:19.160Z,16.47
2023-02-22T10:46:47.470Z,16.52
2023-02-22T10:49:21.922Z,16.60
2023-02-22T10:52:01.197Z,16.67
2023-02-22T10:54:40.584Z,16.93
2023-02-22T10:57:07.861Z,16.87
2023-02-22T10:59:40.165Z,16.56
2023-02-22T11:02:29.642Z,16.82
2023-02-22T11:05:01.441Z,16.78
2023-02-22T11:07:28.577Z,17.02
2023-02-22T11:10:08.246Z,16.98
2023-02-22T11:12:37.753Z,17.07
2023-02-22T11:15:22.558Z,17.01
2023-02-22T11:17:52.563Z,17.02
2023-02-22T11:20:25.726Z,16.99
2023-02-22T11:23:02.004Z,17.03
2023-02-22T11:25:33.797Z,17.19
2023-02-22T11:28:16.718Z,17.20
2023-02-22T11:30:49.712Z,17.09
2023-02-22T11:33:17.060Z,17.17
2023-02-22T11:35:52.831Z,17.25
2023-02-22T11:38:21.315Z,17.11
2023-02-22T11:41:07.991Z,17.02
2023-02-22T11:43:35.495Z,17.23
2023-02-22T11:46:08.373Z,17.26
2023-02-22T11:48:39.678Z,17.34
2023-02-22T11:51:14.810Z,17.04
2023-02-22T11:54:22.726Z,17.12
2023-02-22T11:56:55.733Z,17.22
2023-02-22T11:59:40.886Z,17.33
2023-02-22T12:02:57.354Z,17.24
2023-02-22T12:05:37.453Z,17.49
2023-02-22T12:08:26.993Z,17.49
2023-02-22T12:11:10.251Z,17.50
2023-02-22T12:14:09.795Z,17.63
2023-02-22T12:17:23.524Z,17.19
2023-02-22T12:19:52.739Z,17.27
2023-02-22T12:22:25.989Z,17.07
2023-02-22T12:25:08.542Z,17.09
2023-02-22T12:27:42.414Z,17.24
2023-02-22T12:30:16.595Z,17.27
2023-02-22T12:32:48.704Z,17.47
2023-02-22T12:35:19.513Z,17.77
2023-02-22T12:38:01.914Z,17.70
2023-02-22T12:40:54.665Z,17.97
2023-02-22T12:43:47.436Z,18.03
2023-02-22T12:46:35.398Z,18.16
2023-02-22T12:49:42.764Z,18.12
2023-02-22T12:52:22.344Z,18.04
2023-02-22T12:55:02.162Z,17.76
2023-02-22T12:57:51.840Z,17.72
2023-02-22T13:00:28.834Z,17.37
2023-02-22T13:03:17.746Z,17.68
2023-02-22T13:05:51.490Z,17.87
2023-02-22T13:08:18.721Z,17.80
2023-02-22T13:11:04.626Z,17.87
2023-02-22T13:13:41.696Z,17.84
2023-02-22T13:16:21.923Z,17.70
2023-02-22T13:19:00.644Z,17.58
2023-02-22T13:21:37.188Z,17.52
2023-02-22T13:24:33.946Z,17.59
2023-02-22T13:27:06.757Z,17.67
2023-02-22T13:29:41.724Z,17.73
2023-02-22T13:32:13.704Z,17.63
2023-02-22T13:35:18.261Z,17.78
2023-02-22T13:38:16.838Z,17.78
2023-02-22T13:41:19.147Z,17.68
2023-02-22T13:44:15.154Z,17.68
2023-02-22T13:46:57.127Z,17.61
2023-02-22T13:49:52.083Z,17.48
2023-02-22T13:52:24.776Z,17.34
2023-02-22T13:54:58.018Z,17.30
2023-02-22T13:57:33.543Z,17.28
2023-02-22T14:00:15.750Z,17.26
2023-02-22T14:03:02.829Z,17.16
2023-02-22T14:05:42.529Z,17.26
2023-02-22T14:08:37.109Z,17.32
2023-02-22T14:11:14.148Z,17.27
2023-02-22T14:14:00.853Z,17.27
2023-02-22T14:16:31.959Z,17.07
2023-02-22T14:19:13.505Z,17.07
2023-02-22T14:22:04.335Z,17.13
2023-02-22T14:24:46.963Z,17.17
2023-02-22T14:27:17.680Z,17.19
2023-02-22T14:30:01.464Z,17.11
2023-02-22T14:32:34.545Z,17.12
2023-02-22T14:35:25.498Z,17.00
2023-02-22T14:37:58.344Z,16.94
2023-02-22T14:40:34.983Z,16.60
2023-02-22T14:43:12.853Z,16.88
2023-02-22T14:46:01.787Z,16.71
2023-02-22T14:48:45.085Z,16.73
2023-02-22T14:51:26.864Z,16.71
2023-02-22T14:54:20.648Z,16.69
2023-02-22T14:57:12.247Z,16.67
2023-02-22T14:59:53.257Z,16.65
2023-02-22T15:02:26.076Z,16.49
2023-02-22T15:04:56.565Z,16.54
2023-02-22T15:07:30.731Z,16.59
2023-02-22T15:10:41.677Z,16.58
2023-02-22T15:13:28.033Z,16.49
2023-02-22T15:16:02.111Z,16.40
2023-02-22T15:18:40.687Z,16.32
2023-02-22T15:21:13.437Z,16.09
2023-02-22T15:23:57.147Z,16.27
2023-02-22T15:26:31.615Z,16.14
2023-02-22T15:28:59.959Z,16.05
2023-02-22T15:31:30.453Z,15.97
2023-02-22T15:33:58.185Z,15.85
2023-02-22T15:36:33.772Z,15.81
2023-02-22T15:39:01.188Z,15.66
2023-02-22T15:41:34.138Z,15.59
2023-02-22T15:44:28.005Z,15.52
2023-02-22T15:46:56.621Z,15.29
2023-02-22T15:49:24.815Z,15.38
2023-02-22T15:52:04.117Z,14.85
2023-02-22T15:54:42.729Z,15.13
2023-02-22T15:57:14.589Z,14.86
2023-02-22T15:59:45.645Z,14.98
2023-02-22T16:02:32.750Z,14.87
2023-02-22T16:05:07.199Z,14.86
2023-02-22T16:07:45.316Z,14.74
2023-02-22T16:10:27.533Z,14.69
2023-02-22T16:13:06.666Z,14.67
2023-02-22T16:15:35.844Z,14.63
2023-02-22T16:18:26.089Z,14.49
2023-02-22T16:21:21.654Z,14.49
2023-02-22T16:23:55.971Z,14.43
2023-02-22T16:26:34.383Z,14.43
2023-02-22T16:29:08.732Z,14.20
2023-02-22T16:31:40.208Z,14.18
2023-02-22T16:34:08.430Z,14.10
2023-02-22T16:36:45.566Z,14.02
2023-02-22T16:39:31.448Z,13.90
2023-02-22T16:42:06.082Z,13.77
2023-02-22T16:44:34.729Z,13.65
2023-02-22T16:47:01.690Z,13.57
2023-02-22T16:49:28.601Z,13.48
2023-02-22T16:52:01.770Z,13.38
2023-02-22T16:54:34.341Z,13.28
2023-02-22T16:57:04.061Z,13.25
2023-02-22T16:59:39.270Z,12.90
2023-02-22T17:02:07.747Z,13.00
2023-02-22T17:04:34.788Z,12.92
2023-02-22T17:07:05.106Z,12.83
2023-02-22T17:09:33.181Z,12.73
2023-02-22T17:12:00.835Z,12.64
2023-02-22T17:14:32.466Z,12.54
2023-02-22T17:17:00.298Z,12.50
2023-02-22T17:19:27.714Z,12.46
2023-02-22T17:21:54.869Z,12.33
2023-02-22T17:24:25.012Z,11.99
2023-02-22T17:26:54.891Z,11.88
2023-02-22T17:29:21.937Z,11.79
2023-02-22T17:31:49.320Z,11.65
2023-02-22T17:34:21.836Z,11.43
2023-02-22T17:36:49.402Z,11.44
2023-02-22T17:39:16.537Z,11.32
2023-02-22T17:41:43.470Z,11.22
2023-02-22T17:44:10.299Z,11.16
2023-02-22T17:46:37.562Z,11.09
2023-02-22T17:49:04.603Z,11.05
2023-02-22T17:51:31.627Z,11.00
2023-02-22T17:54:01.155Z,11.09
2023-02-22T17:56:28.233Z,11.34
2023-02-22T17:58:55.699Z,11.39
2023-02-22T18:01:29.034Z,11.32
2023-02-22T18:03:59.664Z,11.25
2023-02-22T18:06:30.002Z,11.20
2023-02-22T18:08:58.920Z,11.17
2023-02-22T18:11:28.142Z,11.17
2023-02-22T18:13:57.482Z,11.18
2023-02-22T18:16:26.142Z,11.13
2023-02-22T18:18:56.011Z,11.04
2023-02-22T18:21:23.769Z,10.96
2023-02-22T18:23:50.854Z,10.97
2023-02-22T18:26:19.698Z,10.92
2023-02-22T18:28:49.196Z,10.81
2023-02-22T18:31:18.470Z,10.73
2023-02-22T18:33:48.230Z,10.73
2023-02-22T18:36:16.765Z,10.81
2023-02-22T18:38:44.625Z,10.76
2023-02-22T18:41:16.234Z,10.60
2023-02-22T18:43:44.112Z,10.54
2023-02-22T18:46:13.825Z,10.54
2023-02-22T18:48:41.578Z,10.43
2023-02-22T18:51:11.352Z,10.39
2023-02-22T18:53:41.608Z,10.26
2023-02-22T18:56:11.861Z,10.22
2023-02-22T18:58:39.344Z,10.21
2023-02-22T19:01:07.611Z,10.00
2023-02-22T19:03:38.242Z,9.87
2023-02-22T19:06:09.876Z,9.84
2023-02-22T19:08:39.688Z,9.83
2023-02-22T19:11:12.935Z,9.70
2023-02-22T19:13:39.884Z,9.68
2023-02-22T19:16:07.545Z,9.67
2023-02-22T19:18:35.023Z,9.64
2023-02-22T19:21:03.750Z,9.51
2023-02-22T19:23:34.523Z,9.60
2023-02-22T19:26:04.333Z,9.60
2023-02-22T19:28:36.974Z,9.54
2023-02-22T19:31:18.668Z,9.47
2023-02-22T19:33:47.586Z,9.32
2023-02-22T19:36:15.675Z,9.40
2023-02-22T19:38:43.422Z,9.32
2023-02-22T19:41:22.183Z,9.30
2023-02-22T19:43:51.808Z,9.25
2023-02-22T19:46:21.222Z,9.22
2023-02-22T19:48:49.259Z,9.25
2023-02-22T19:51:18.243Z,9.20
2023-02-22T19:53:46.320Z,9.15
2023-02-22T19:56:16.855Z,9.14
2023-02-22T19:58:45.521Z,9.03
2023-02-22T20:01:22.889Z,8.94
2023-02-22T20:03:54.579Z,8.80
2023-02-22T20:06:26.465Z,8.60
2023-02-22T20:08:54.932Z,8.47
2023-02-22T20:11:23.491Z,8.48
2023-02-22T20:13:50.676Z,8.40
2023-02-22T20:16:17.931Z,8.40
2023-02-22T20:18:46.370Z,8.31
2023-02-22T20:21:20.502Z,7.63
2023-02-22T20:23:48.117Z,8.11
2023-02-22T20:29:31.583Z,8.05
2023-02-22T20:32:11.415Z,7.85
2023-02-22T20:34:38.714Z,7.77
2023-02-22T20:37:05.473Z,7.60
2023-02-22T20:39:32.713Z,7.76
2023-02-22T20:42:04.695Z,7.74
2023-02-22T20:44:31.722Z,7.63
2023-02-22T20:46:58.787Z,7.70
2023-02-22T20:49:27.277Z,7.64
2023-02-22T20:51:54.070Z,7.58
2023-02-22T20:54:21.082Z,7.48
2023-02-22T20:56:48.453Z,7.51
2023-02-22T20:59:18.420Z,7.36
2023-02-22T21:01:47.565Z,7.35
2023-02-22T21:04:14.794Z,7.33
2023-02-22T21:06:41.915Z,7.11
2023-02-22T21:09:16.288Z,7.04
2023-02-22T21:11:44.267Z,6.92
2023-02-22T21:14:16.783Z,6.99
2023-02-22T21:16:46.581Z,6.89
2023-02-22T21:19:28.038Z,6.78
2023-02-22T21:21:58.521Z,6.74
2023-02-22T21:24:29.579Z,6.69
2023-02-22T21:26:59.096Z,6.68
2023-02-22T21:29:27.113Z,6.59
2023-02-22T21:31:54.140Z,6.56
2023-02-22T21:34:22.357Z,6.33
2023-02-22T21:36:51.175Z,6.34
2023-02-22T21:39:18.207Z,6.28
2023-02-22T21:41:47.059Z,6.23
2023-02-22T21:44:15.063Z,6.23
2023-02-22T21:46:42.205Z,6.22
2023-02-22T21:49:11.182Z,6.16
2023-02-22T21:51:38.289Z,6.08
2023-02-22T21:54:08.361Z,6.08
2023-02-22T21:56:41.324Z,6.02
2023-02-22T21:59:15.228Z,6.11
2023-02-22T22:01:50.136Z,6.08
2023-02-22T22:04:20.424Z,6.02
2023-02-22T22:06:50.972Z,5.95
2023-02-22T22:09:19.605Z,5.92
2023-02-22T22:11:49.705Z,5.92
2023-02-22T22:14:19.026Z,5.88
2023-02-22T22:16:47.998Z,5.91
2023-02-22T22:19:15.447Z,5.82
2023-02-22T22:21:42.908Z,5.79
2023-02-22T22:24:13.640Z,5.68
2023-02-22T22:26:40.857Z,5.77
2023-02-22T22:29:10.482Z,5.74
2023-02-22T22:31:38.049Z,5.72
2023-02-22T22:34:05.716Z,5.60
2023-02-22T22:36:34.454Z,5.52
2023-02-22T22:39:01.540Z,5.44
2023-02-22T22:41:28.505Z,5.43
2023-02-22T22:43:55.968Z,5.36
2023-02-22T22:46:23.611Z,5.27
2023-02-22T22:48:50.438Z,5.20
2023-02-22T22:51:20.951Z,5.27
2023-02-22T22:53:49.569Z,5.26
2023-02-22T22:56:17.717Z,5.22
2023-02-22T22:58:50.831Z,5.08
2023-02-22T23:01:20.542Z,5.15
2023-02-22T23:03:55.014Z,5.11
2023-02-22T23:06:24.995Z,5.22
2023-02-22T23:09:00.125Z,5.27
2023-02-22T23:11:33.868Z,5.23
2023-02-22T23:14:03.693Z,5.28
2023-02-22T23:16:34.854Z,5.19
2023-02-22T23:19:01.884Z,5.15
2023-02-22T23:21:28.709Z,5.20
2023-02-22T23:23:58.598Z,5.30
2023-02-22T23:26:26.791Z,5.31
2023-02-22T23:28:59.320Z,5.33
2023-02-22T23:31:28.985Z,5.31
2023-02-22T23:33:58.889Z,5.26
2023-02-22T23:36:27.125Z,5.30
2023-02-22T23:38:54.383Z,5.19
2023-02-22T23:41:25.039Z,5.13
2023-02-22T23:43:52.006Z,5.13
2023-02-22T23:46:19.606Z,5.19
2023-02-22T23:48:54.838Z,5.08
2023-02-22T23:51:27.052Z,5.22
2023-02-22T23:53:58.203Z,5.16
2023-02-22T23:56:27.413Z,5.03
2023-02-22T23:58:57.530Z,5.05
